Time;durP1;ratioP1;P1;durP2;ratioP2;P2;SDS_P1;SDS_P2;PMS_P1;PMS_P2;Temp;Humidity;BMP_temperature;BMP_pressure;BME280_temperature;BME280_humidity;BME280_pressure;Samples;Min_cycle;Max_cycle;Signal;HPM_P1;HPM_P2
2023/07/28 00:02:12;;;;;;;4.20;0.80;;;;;;;16.60;78.40;99347.48;109756;1285;22163;-76
2023/07/28 00:04:43;;;;;;;2.30;0.60;;;;;;;16.60;78.40;99350.21;109777;1282;22132;-76
2023/07/28 00:07:14;;;;;;;2.40;0.70;;;;;;;16.61;78.43;99346.48;109766;1285;22180;-76
2023/07/28 00:09:45;;;;;;;3.80;0.60;;;;;;;16.62;78.27;99339.69;109764;1283;22219;-76
2023/07/28 00:12:16;;;;;;;4.90;0.70;;;;;;;16.64;78.36;99337.95;109770;1285;22383;-76
2023/07/28 00:14:47;;;;;;;3.70;0.80;;;;;;;16.64;78.57;99335.95;109757;1285;22244;-76
2023/07/28 00:17:18;;;;;;;2.90;0.70;;;;;;;16.64;78.46;99334.71;109764;1285;22719;-76
2023/07/28 00:19:48;;;;;;;6.20;0.80;;;;;;;16.66;78.56;99333.86;109752;1283;22187;-76
2023/07/28 00:22:19;;;;;;;3.50;1.10;;;;;;;16.67;78.66;99330.20;109771;1277;22946;-76
2023/07/28 00:24:50;;;;;;;5.60;0.70;;;;;;;16.67;78.56;99326.56;109768;1285;22200;-76
2023/07/28 00:27:20;;;;;;;4.80;0.70;;;;;;;16.69;78.56;99327.08;109798;1285;22228;-75
2023/07/28 00:29:52;;;;;;;4.30;0.80;;;;;;;16.70;78.61;99327.95;109769;1285;22199;-76
2023/07/28 00:32:22;;;;;;;3.70;0.80;;;;;;;16.70;78.75;99326.30;109771;1279;22187;-76
2023/07/28 00:34:53;;;;;;;4.40;0.80;;;;;;;16.69;78.71;99320.39;109767;1279;22253;-76
2023/07/28 00:37:24;;;;;;;2.30;0.60;;;;;;;16.69;78.77;99320.89;109770;1285;23319;-76
2023/07/28 00:39:54;;;;;;;2.80;0.60;;;;;;;16.69;78.57;99316.95;109748;1285;22188;-76
2023/07/28 00:42:25;;;;;;;6.80;0.70;;;;;;;16.71;78.63;99307.89;109782;1285;22201;-76
2023/07/28 00:44:56;;;;;;;3.30;0.60;;;;;;;16.71;78.67;99305.88;109768;1285;22780;-76
2023/07/28 00:47:26;;;;;;;7.10;0.70;;;;;;;16.72;78.77;99301.86;109759;1274;22238;-76
2023/07/28 00:49:57;;;;;;;2.70;0.60;;;;;;;16.71;78.74;99303.53;109740;1285;22209;-76
2023/07/28 00:52:28;;;;;;;4.30;0.70;;;;;;;16.69;78.91;99302.45;109772;1278;23028;-76
2023/07/28 00:54:59;;;;;;;4.90;0.90;;;;;;;16.65;79.07;99299.19;109771;1285;22149;-76
2023/07/28 00:57:29;;;;;;;2.90;0.60;;;;;;;16.65;79.06;99300.38;109762;1277;22896;-76
2023/07/28 01:00:00;;;;;;;7.30;1.00;;;;;;;16.65;79.19;99295.50;109766;1285;23110;-76
2023/07/28 01:02:31;;;;;;;3.30;0.50;;;;;;;16.63;79.37;99294.77;109770;1277;22307;-76
2023/07/28 01:05:03;;;;;;;2.40;0.50;;;;;;;16.63;79.51;99295.36;109770;1285;22167;-76
2023/07/28 01:07:44;;;;;;;2.30;0.50;;;;;;;16.63;79.57;99296.84;109782;1278;22290;-76
2023/07/28 01:10:19;;;;;;;2.80;0.80;;;;;;;16.65;79.47;99291.41;109773;1279;22177;-76
2023/07/28 01:12:50;;;;;;;5.70;0.80;;;;;;;16.66;79.78;99286.94;109769;1282;22177;-76
2023/07/28 01:15:21;;;;;;;6.20;0.90;;;;;;;16.65;79.96;99285.16;109778;1285;22968;-76
2023/07/28 01:17:52;;;;;;;4.40;0.90;;;;;;;16.61;80.08;99280.02;109780;1285;22601;-76
2023/07/28 01:20:30;;;;;;;4.80;0.70;;;;;;;16.57;80.18;99284.05;109761;1285;22237;-76
2023/07/28 01:23:14;;;;;;;4.10;0.70;;;;;;;16.55;80.21;99283.45;109773;1274;22176;-76
2023/07/28 01:25:56;;;;;;;6.10;0.80;;;;;;;16.54;80.44;99277.17;109778;1283;22141;-76
2023/07/28 01:28:28;;;;;;;8.60;0.80;;;;;;;16.52;80.49;99265.23;109766;1285;23050;-76
2023/07/28 01:30:58;;;;;;;3.40;0.70;;;;;;;16.53;80.69;99268.73;109747;1283;23100;-76
2023/07/28 01:33:29;;;;;;;3.70;0.70;;;;;;;16.54;80.69;99268.06;109740;1285;22182;-76
2023/07/28 01:36:01;;;;;;;2.40;0.60;;;;;;;16.54;80.83;99275.36;109772;1285;23082;-76
2023/07/28 01:38:31;;;;;;;5.70;0.90;;;;;;;16.53;80.88;99270.20;109760;1278;22178;-76
2023/07/28 01:41:02;;;;;;;3.40;0.80;;;;;;;16.54;80.80;99266.95;109741;1282;23032;-76
2023/07/28 01:43:32;;;;;;;3.70;0.90;;;;;;;16.55;81.03;99270.19;109762;1282;22970;-76
2023/07/28 01:46:03;;;;;;;3.20;1.00;;;;;;;16.56;81.17;99266.14;109761;1285;22196;-76
2023/07/28 01:48:34;;;;;;;5.10;1.00;;;;;;;16.55;81.13;99259.37;109749;1285;22129;-76
2023/07/28 01:51:05;;;;;;;2.20;0.80;;;;;;;16.57;81.18;99260.84;109767;1285;23199;-76
2023/07/28 01:53:36;;;;;;;3.40;1.10;;;;;;;16.59;81.17;99259.58;109755;1285;22972;-76
2023/07/28 01:56:07;;;;;;;3.20;0.80;;;;;;;16.60;81.24;99254.22;109788;1285;22936;-76
2023/07/28 01:58:37;;;;;;;7.40;1.00;;;;;;;16.61;81.21;99248.29;109752;1285;22302;-76
2023/07/28 02:01:08;;;;;;;7.40;1.10;;;;;;;16.62;81.26;99237.67;109744;1285;22304;-76
2023/07/28 02:03:38;;;;;;;4.50;0.90;;;;;;;16.63;81.25;99235.70;109748;1280;22122;-76
2023/07/28 02:06:09;;;;;;;4.10;0.80;;;;;;;16.66;81.42;99230.02;109776;1285;22173;-76
2023/07/28 02:08:40;;;;;;;4.70;1.00;;;;;;;16.65;81.65;99225.36;109755;1285;22238;-76
2023/07/28 02:11:10;;;;;;;6.70;0.90;;;;;;;16.65;81.56;99232.04;109754;1285;22260;-76
2023/07/28 02:13:41;;;;;;;5.90;1.10;;;;;;;16.65;81.60;99233.31;109767;1285;22162;-76
2023/07/28 02:16:12;;;;;;;3.60;0.80;;;;;;;16.66;81.77;99239.53;109765;1285;22142;-76
2023/07/28 02:18:42;;;;;;;3.90;0.90;;;;;;;16.67;81.80;99240.89;109770;1285;22167;-76
2023/07/28 02:21:13;;;;;;;3.70;0.90;;;;;;;16.66;81.91;99243.62;109744;1285;22172;-76
2023/07/28 02:23:44;;;;;;;5.50;0.90;;;;;;;16.64;81.89;99242.96;109756;1285;22272;-76
2023/07/28 02:26:14;;;;;;;6.70;0.90;;;;;;;16.64;81.99;99242.13;109747;1277;22334;-76
2023/07/28 02:28:45;;;;;;;3.30;0.90;;;;;;;16.65;82.28;99243.51;109768;1282;22375;-76
2023/07/28 02:31:16;;;;;;;4.30;1.00;;;;;;;16.66;82.33;99237.64;109752;1285;22162;-76
2023/07/28 02:33:46;;;;;;;5.90;0.90;;;;;;;16.66;82.44;99235.23;109771;1285;22377;-76
2023/07/28 02:36:17;;;;;;;3.90;1.10;;;;;;;16.66;82.49;99235.54;109769;1285;23035;-76
2023/07/28 02:38:48;;;;;;;4.70;1.10;;;;;;;16.67;82.68;99241.00;109767;1282;22209;-76
2023/07/28 02:41:19;;;;;;;7.40;1.40;;;;;;;16.66;82.55;99238.70;109763;1283;22356;-76
2023/07/28 02:43:50;;;;;;;5.40;1.20;;;;;;;16.68;82.98;99234.94;109788;1274;22161;-76
2023/07/28 02:46:20;;;;;;;4.40;1.10;;;;;;;16.69;83.00;99241.81;109752;1274;22250;-76
2023/07/28 02:48:51;;;;;;;7.70;1.20;;;;;;;16.71;83.09;99244.18;109778;1285;22132;-76
2023/07/28 02:51:22;;;;;;;8.90;1.10;;;;;;;16.72;83.19;99242.42;109753;1282;22231;-76
2023/07/28 02:53:52;;;;;;;4.00;0.90;;;;;;;16.71;83.39;99245.30;109758;1285;22138;-76
2023/07/28 02:56:23;;;;;;;5.70;1.30;;;;;;;16.72;83.40;99245.70;109769;1283;22186;-77
2023/07/28 02:58:53;;;;;;;3.30;0.90;;;;;;;16.74;83.49;99241.36;109760;1285;22141;-77
2023/07/28 03:01:24;;;;;;;2.70;1.00;;;;;;;16.75;83.86;99239.04;109766;1285;22824;-77
2023/07/28 03:03:55;;;;;;;7.70;1.40;;;;;;;16.74;83.92;99236.95;109797;1285;23059;-77
2023/07/28 03:06:25;;;;;;;6.70;1.20;;;;;;;16.74;84.10;99239.51;109766;1277;22239;-77
2023/07/28 03:08:56;;;;;;;6.00;1.40;;;;;;;16.76;84.15;99243.64;109793;1285;22873;-77
2023/07/28 03:11:27;;;;;;;4.60;1.10;;;;;;;16.77;84.45;99238.94;109753;1283;23046;-77
2023/07/28 03:13:57;;;;;;;7.10;1.60;;;;;;;16.74;84.73;99241.40;109747;1279;22153;-77
2023/07/28 03:16:28;;;;;;;4.50;1.10;;;;;;;16.73;84.68;99232.66;109785;1285;22311;-77
2023/07/28 03:18:59;;;;;;;6.80;1.40;;;;;;;16.73;85.07;99235.59;109766;1285;22214;-77
2023/07/28 03:21:32;;;;;;;7.50;1.50;;;;;;;16.74;85.05;99240.21;109744;1278;22217;-77
2023/07/28 03:24:02;;;;;;;5.10;1.40;;;;;;;16.75;85.36;99243.02;109762;1285;22154;-77
2023/07/28 03:26:33;;;;;;;4.40;1.30;;;;;;;16.75;85.40;99245.02;109762;1282;22147;-77
2023/07/28 03:29:04;;;;;;;4.80;1.40;;;;;;;16.75;85.67;99245.80;109787;1285;22179;-77
2023/07/28 03:31:35;;;;;;;5.30;1.60;;;;;;;16.75;85.59;99245.70;109758;1277;22218;-77
2023/07/28 03:34:06;;;;;;;8.00;3.50;;;;;;;16.77;85.83;99244.43;109764;1285;22233;-76
2023/07/28 03:36:37;;;;;;;6.90;1.40;;;;;;;16.78;85.87;99247.00;109739;1285;22938;-77
2023/07/28 03:39:07;;;;;;;6.00;1.60;;;;;;;16.79;86.04;99246.94;109769;1285;22186;-76
2023/07/28 03:41:38;;;;;;;8.60;1.60;;;;;;;16.80;86.18;99254.20;109719;1276;22933;-77
2023/07/28 03:44:09;;;;;;;4.70;1.20;;;;;;;16.78;86.28;99247.79;109765;1285;22186;-76
2023/07/28 03:46:40;;;;;;;6.40;1.20;;;;;;;16.74;86.60;99252.85;109799;1274;22201;-76
2023/07/28 03:49:10;;;;;;;7.10;1.60;;;;;;;16.71;86.83;99245.98;109770;1282;22363;-76
2023/07/28 03:51:41;;;;;;;4.40;1.10;;;;;;;16.70;87.24;99241.80;109740;1285;22247;-76
2023/07/28 03:54:11;;;;;;;6.30;1.30;;;;;;;16.68;87.44;99232.37;109761;1285;22227;-76
2023/07/28 03:56:42;;;;;;;3.20;1.00;;;;;;;16.66;87.57;99233.33;109742;1285;22242;-76
2023/07/28 03:59:13;;;;;;;8.20;1.40;;;;;;;16.67;87.52;99235.97;109767;1285;22260;-77
2023/07/28 04:01:43;;;;;;;5.10;1.20;;;;;;;16.69;87.76;99235.89;109758;1285;22160;-76
2023/07/28 04:04:14;;;;;;;4.40;1.00;;;;;;;16.71;87.93;99232.81;109765;1285;22131;-76
2023/07/28 04:06:47;;;;;;;10.10;1.60;;;;;;;16.74;87.98;99230.45;109766;1273;22852;-76
2023/07/28 04:09:17;;;;;;;6.60;1.40;;;;;;;16.76;88.05;99227.02;109767;1280;22446;-76
2023/07/28 04:11:48;;;;;;;4.30;1.20;;;;;;;16.78;88.27;99222.86;109749;1285;22378;-76
2023/07/28 04:14:19;;;;;;;6.10;1.40;;;;;;;16.78;88.43;99214.04;109771;1277;23015;-76
2023/07/28 04:16:50;;;;;;;4.40;1.20;;;;;;;16.80;88.49;99205.60;109768;1282;23089;-76
2023/07/28 04:19:21;;;;;;;5.60;1.20;;;;;;;16.83;88.60;99202.78;109772;1285;23119;-76
2023/07/28 04:21:51;;;;;;;3.50;1.00;;;;;;;16.84;88.68;99200.17;109754;1285;22147;-76
2023/07/28 04:24:22;;;;;;;3.10;1.00;;;;;;;16.84;89.00;99199.30;109768;1274;22329;-76
2023/07/28 04:26:53;;;;;;;5.70;1.00;;;;;;;16.84;88.96;99200.02;109775;1285;22155;-76
2023/07/28 04:29:24;;;;;;;3.10;0.90;;;;;;;16.85;89.21;99196.94;109759;1281;22166;-76
2023/07/28 04:31:55;;;;;;;2.60;0.80;;;;;;;16.85;89.10;99196.94;109770;1285;22646;-76
2023/07/28 04:34:25;;;;;;;3.80;1.00;;;;;;;16.87;89.11;99196.21;109748;1285;22198;-76
2023/07/28 04:36:56;;;;;;;6.20;0.90;;;;;;;16.90;89.09;99191.54;109791;1273;22176;-76
2023/07/28 04:39:27;;;;;;;3.70;1.00;;;;;;;16.92;89.11;99192.39;109784;1284;22405;-76
2023/07/28 04:41:57;;;;;;;4.20;0.90;;;;;;;16.94;89.38;99195.43;109807;1285;22281;-77
2023/07/28 04:44:28;;;;;;;4.30;0.90;;;;;;;16.96;89.26;99191.69;109771;1285;22975;-76
2023/07/28 04:46:59;;;;;;;3.70;1.00;;;;;;;16.99;89.49;99189.58;109786;1285;22666;-76
2023/07/28 04:49:30;;;;;;;4.90;1.10;;;;;;;17.02;89.41;99191.64;109774;1283;23136;-76
2023/07/28 04:52:00;;;;;;;2.80;0.80;;;;;;;17.04;89.70;99190.90;109759;1285;22882;-77
2023/07/28 04:54:31;;;;;;;4.00;1.00;;;;;;;17.06;89.52;99188.30;109773;1285;22174;-76
2023/07/28 04:57:02;;;;;;;3.10;0.80;;;;;;;17.08;89.34;99191.33;109792;1270;22336;-77
2023/07/28 04:59:32;;;;;;;3.10;0.90;;;;;;;17.11;89.73;99189.88;109770;1284;22232;-77
2023/07/28 05:02:03;;;;;;;4.20;1.10;;;;;;;17.11;89.50;99186.64;109786;1285;22250;-77
2023/07/28 05:04:35;;;;;;;2.90;0.90;;;;;;;17.13;89.62;99183.88;109785;1283;22143;-77
2023/07/28 05:07:06;;;;;;;3.40;0.90;;;;;;;17.15;89.79;99189.58;109771;1285;22153;-76
2023/07/28 05:09:37;;;;;;;3.10;0.90;;;;;;;17.15;89.85;99194.63;109771;1280;22262;-76
2023/07/28 05:12:09;;;;;;;4.00;1.00;;;;;;;17.19;89.67;99195.06;109772;1280;22207;-76
2023/07/28 05:14:40;;;;;;;4.60;1.00;;;;;;;17.22;89.83;99199.20;109781;1285;22135;-77
2023/07/28 05:17:11;;;;;;;2.00;0.90;;;;;;;17.22;89.79;99199.12;109772;1271;22191;-77
2023/07/28 05:19:42;;;;;;;2.00;0.70;;;;;;;17.24;89.78;99206.73;109723;1285;22152;-76
2023/07/28 05:22:12;;;;;;;2.70;0.90;;;;;;;17.26;89.95;99205.30;109787;1285;22185;-77
2023/07/28 05:24:43;;;;;;;3.10;1.00;;;;;;;17.29;89.83;99204.19;109769;1283;22138;-76
2023/07/28 05:27:14;;;;;;;3.90;0.90;;;;;;;17.32;90.01;99213.89;109804;1280;22157;-76
2023/07/28 05:29:45;;;;;;;4.50;0.80;;;;;;;17.30;90.09;99221.80;109763;1285;22196;-77
2023/07/28 05:32:16;;;;;;;4.00;0.90;;;;;;;17.27;90.28;99217.23;109797;1285;22244;-78
2023/07/28 05:34:46;;;;;;;4.30;1.10;;;;;;;17.25;90.68;99211.08;109782;1280;22174;-78
2023/07/28 05:37:17;;;;;;;3.10;1.00;;;;;;;17.22;90.91;99208.15;109775;1280;22219;-77
2023/07/28 05:39:48;;;;;;;4.60;0.90;;;;;;;17.22;91.22;99207.09;109761;1285;22154;-77
2023/07/28 05:42:19;;;;;;;3.40;0.80;;;;;;;17.21;91.54;99208.59;109780;1285;22768;-76
2023/07/28 05:44:49;;;;;;;2.00;0.70;;;;;;;17.21;91.71;99205.42;109791;1285;22158;-76
2023/07/28 05:47:20;;;;;;;3.00;0.70;;;;;;;17.21;92.22;99206.45;109774;1278;22182;-76
2023/07/28 05:49:53;;;;;;;3.50;0.80;;;;;;;17.22;92.36;99202.77;109759;1283;23012;-76
2023/07/28 05:52:24;;;;;;;3.60;0.70;;;;;;;17.23;92.65;99207.15;109762;1285;22597;-76
2023/07/28 05:54:55;;;;;;;3.40;0.80;;;;;;;17.25;92.81;99207.13;109779;1279;22860;-76
2023/07/28 05:57:26;;;;;;;5.80;0.90;;;;;;;17.26;92.79;99207.65;109789;1284;22256;-76
2023/07/28 05:59:57;;;;;;;3.40;0.80;;;;;;;17.29;92.97;99206.34;109751;1285;22274;-76
2023/07/28 06:02:27;;;;;;;5.50;0.90;;;;;;;17.32;93.09;99209.30;109783;1285;22346;-76
2023/07/28 06:04:58;;;;;;;4.00;1.00;;;;;;;17.33;93.29;99210.20;109787;1281;22163;-76
2023/07/28 06:07:29;;;;;;;2.50;1.00;;;;;;;17.35;93.28;99208.80;109783;1285;23043;-76
2023/07/28 06:10:00;;;;;;;3.50;0.90;;;;;;;17.41;93.67;99210.73;109738;1279;22151;-76
2023/07/28 06:12:30;;;;;;;2.90;0.90;;;;;;;17.46;93.86;99212.55;109764;1282;22360;-76
2023/07/28 06:15:01;;;;;;;4.20;0.90;;;;;;;17.48;94.00;99210.70;109762;1280;22953;-77
2023/07/28 06:17:32;;;;;;;4.80;1.10;;;;;;;17.53;94.19;99213.50;109794;1277;22193;-76
2023/07/28 06:20:04;;;;;;;3.60;1.20;;;;;;;17.59;94.27;99214.23;109755;1273;22242;-76
2023/07/28 06:22:35;;;;;;;4.60;1.10;;;;;;;17.63;94.27;99214.23;109753;1285;22192;-76
2023/07/28 06:25:07;;;;;;;3.50;1.10;;;;;;;17.67;94.34;99206.70;109763;1285;22193;-76
2023/07/28 06:27:38;;;;;;;3.80;1.00;;;;;;;17.71;94.49;99209.52;109763;1279;22811;-76
2023/07/28 06:30:11;;;;;;;2.90;1.00;;;;;;;17.74;94.58;99213.73;109766;1285;22177;-76
2023/07/28 06:32:42;;;;;;;4.20;1.10;;;;;;;17.78;94.43;99217.09;109746;1285;22161;-77
2023/07/28 06:35:13;;;;;;;4.30;1.10;;;;;;;17.82;94.69;99219.63;109766;1283;22177;-77
2023/07/28 06:37:44;;;;;;;4.30;1.20;;;;;;;17.88;94.89;99211.47;109748;1285;22204;-77
2023/07/28 06:40:15;;;;;;;5.70;1.30;;;;;;;17.93;94.98;99215.23;109773;1281;22170;-77
2023/07/28 06:42:46;;;;;;;3.10;0.80;;;;;;;17.98;94.99;99216.70;109799;1285;22550;-77
2023/07/28 06:45:17;;;;;;;4.20;1.00;;;;;;;18.01;94.84;99222.82;109794;1285;22219;-77
2023/07/28 06:47:47;;;;;;;5.10;0.90;;;;;;;18.03;94.81;99226.41;109803;1285;22207;-77
2023/07/28 06:50:18;;;;;;;2.20;0.80;;;;;;;18.05;94.71;99226.04;109764;1283;22142;-77
2023/07/28 06:52:49;;;;;;;3.90;0.90;;;;;;;18.08;94.86;99230.02;109775;1285;22149;-77
2023/07/28 06:55:21;;;;;;;3.00;0.70;;;;;;;18.11;95.01;99229.17;109788;1273;22322;-77
2023/07/28 06:57:52;;;;;;;1.90;0.70;;;;;;;18.17;95.26;99232.97;109794;1285;22213;-77
2023/07/28 07:00:23;;;;;;;2.60;0.90;;;;;;;18.22;95.29;99233.38;109766;1284;22349;-77
2023/07/28 07:02:54;;;;;;;2.40;0.70;;;;;;;18.30;95.50;99228.98;109791;1285;22196;-77
2023/07/28 07:05:25;;;;;;;2.80;0.80;;;;;;;18.40;95.45;99223.13;109797;1277;22938;-76
2023/07/28 07:07:56;;;;;;;1.60;0.50;;;;;;;18.48;95.86;99221.42;109771;1285;22181;-76
2023/07/28 07:10:26;;;;;;;1.30;0.50;;;;;;;18.55;95.46;99221.41;109747;1285;22342;-76
2023/07/28 07:12:57;;;;;;;1.30;0.50;;;;;;;18.60;95.28;99222.23;109803;1285;22136;-76
2023/07/28 07:15:28;;;;;;;1.20;0.40;;;;;;;18.66;95.14;99220.58;109780;1285;22187;-77
2023/07/28 07:17:58;;;;;;;2.40;0.50;;;;;;;18.71;95.09;99226.52;109796;1285;22279;-76
2023/07/28 07:20:29;;;;;;;5.00;0.30;;;;;;;18.75;94.96;99232.69;109762;1277;22166;-76
2023/07/28 07:23:00;;;;;;;3.20;0.40;;;;;;;18.77;94.57;99236.58;109779;1282;23033;-77
2023/07/28 07:25:31;;;;;;;2.40;0.40;;;;;;;18.82;94.77;99239.32;109785;1277;22202;-77
2023/07/28 07:28:02;;;;;;;1.30;0.40;;;;;;;18.87;94.52;99241.48;109797;1273;22210;-77
2023/07/28 07:30:34;;;;;;;3.60;0.60;;;;;;;18.92;94.47;99245.53;109772;1280;22265;-77
2023/07/28 07:33:05;;;;;;;1.80;0.50;;;;;;;19.00;94.64;99249.06;109776;1285;22114;-77
2023/07/28 07:35:39;;;;;;;2.00;0.50;;;;;;;19.05;94.45;99256.40;109789;1285;22884;-77
2023/07/28 07:38:10;;;;;;;1.70;0.30;;;;;;;19.10;94.31;99251.05;109793;1279;22200;-76
2023/07/28 07:40:40;;;;;;;1.30;0.30;;;;;;;19.14;94.33;99257.45;109779;1285;22195;-77
2023/07/28 07:43:11;;;;;;;3.30;0.40;;;;;;;19.19;94.40;99262.33;109794;1278;22370;-78
2023/07/28 07:45:42;;;;;;;0.80;0.20;;;;;;;19.22;94.14;99261.77;109797;1285;22161;-78
2023/07/28 07:48:12;;;;;;;2.70;0.50;;;;;;;19.24;93.85;99263.80;109802;1281;22206;-77
2023/07/28 07:50:43;;;;;;;1.50;0.10;;;;;;;19.24;93.17;99265.58;109758;1283;22251;-77
2023/07/28 07:53:15;;;;;;;1.00;0.20;;;;;;;19.24;93.03;99266.41;109797;1273;22207;-77
2023/07/28 07:55:46;;;;;;;0.70;0.20;;;;;;;19.23;93.02;99262.45;109776;1285;22092;-78
2023/07/28 07:58:16;;;;;;;0.30;0.10;;;;;;;19.23;92.83;99261.42;109797;1285;22197;-77
2023/07/28 08:00:47;;;;;;;2.40;0.20;;;;;;;19.25;92.56;99261.45;109764;1282;22196;-77
2023/07/28 08:03:18;;;;;;;1.30;0.20;;;;;;;19.28;92.65;99257.23;109796;1285;22943;-77
2023/07/28 08:05:53;;;;;;;1.20;0.20;;;;;;;19.34;92.56;99263.62;109803;1285;22913;-77
2023/07/28 08:08:24;;;;;;;1.20;0.20;;;;;;;19.40;92.53;99261.56;109826;1277;22329;-77
2023/07/28 08:10:55;;;;;;;3.40;0.30;;;;;;;19.42;92.10;99263.11;109771;1285;22159;-77
2023/07/28 08:13:27;;;;;;;1.20;0.20;;;;;;;19.47;91.95;99263.95;109788;1280;22320;-78
2023/07/28 08:15:58;;;;;;;0.80;0.20;;;;;;;19.53;91.98;99269.39;109783;1285;22139;-77
2023/07/28 08:18:29;;;;;;;1.10;0.20;;;;;;;19.59;91.97;99272.35;109795;1278;22560;-78
2023/07/28 08:21:00;;;;;;;3.20;0.20;;;;;;;19.64;92.04;99274.23;109751;1285;22171;-78
2023/07/28 08:23:30;;;;;;;1.50;0.10;;;;;;;19.67;92.05;99273.84;109797;1285;22210;-78
2023/07/28 08:26:01;;;;;;;2.20;0.10;;;;;;;19.68;91.95;99273.59;109775;1285;22243;-78
2023/07/28 08:28:32;;;;;;;0.60;0.20;;;;;;;19.72;92.23;99268.73;109778;1285;22221;-78
2023/07/28 08:31:04;;;;;;;0.40;0.10;;;;;;;19.75;91.83;99266.80;109808;1285;22294;-78
2023/07/28 08:33:34;;;;;;;0.60;0.20;;;;;;;19.79;91.94;99267.83;109781;1285;22170;-78
2023/07/28 08:36:06;;;;;;;3.20;0.20;;;;;;;19.82;91.90;99272.09;109785;1285;22232;-78
2023/07/28 08:38:37;;;;;;;2.80;0.10;;;;;;;19.81;91.86;99273.26;109767;1280;22315;-78
2023/07/28 08:41:09;;;;;;;1.70;0.10;;;;;;;19.74;91.97;99278.29;109771;1285;22171;-77
2023/07/28 08:43:40;;;;;;;0.90;0.10;;;;;;;19.67;92.14;99283.75;109774;1277;22129;-78
2023/07/28 08:46:11;;;;;;;1.40;0.30;;;;;;;19.63;92.24;99289.56;109800;1285;22147;-79
2023/07/28 08:48:42;;;;;;;1.40;0.30;;;;;;;19.59;92.22;99281.67;109758;1285;22221;-77
2023/07/28 08:51:13;;;;;;;0.50;0.10;;;;;;;19.57;92.43;99283.79;109773;1285;22978;-78
2023/07/28 08:53:44;;;;;;;0.90;0.20;;;;;;;19.59;92.72;99286.80;109793;1280;22248;-77
2023/07/28 08:56:15;;;;;;;3.30;0.30;;;;;;;19.68;93.23;99290.02;109801;1284;22153;-77
2023/07/28 08:58:46;;;;;;;0.70;0.20;;;;;;;19.76;93.34;99287.45;109815;1270;22930;-77
2023/07/28 09:01:17;;;;;;;1.30;0.20;;;;;;;19.86;93.35;99286.36;109803;1285;22182;-77
2023/07/28 09:03:50;;;;;;;1.40;0.20;;;;;;;19.94;93.20;99292.27;109802;1285;22818;-77
2023/07/28 09:06:29;;;;;;;1.40;0.20;;;;;;;20.03;93.36;99292.06;109798;1281;22440;-78
2023/07/28 09:09:00;;;;;;;0.80;0.30;;;;;;;20.09;93.27;99297.02;109798;1285;22201;-78
2023/07/28 09:11:31;;;;;;;2.70;0.30;;;;;;;20.09;92.31;99300.83;109798;1277;22166;-77
2023/07/28 09:14:02;;;;;;;2.20;0.20;;;;;;;20.01;91.97;99303.92;109775;1285;22561;-77
2023/07/28 09:16:33;;;;;;;2.50;0.20;;;;;;;19.95;92.34;99309.45;109774;1277;23094;-77
2023/07/28 09:19:09;;;;;;;2.80;0.20;;;;;;;19.92;92.63;99303.48;109768;1285;22241;-77
2023/07/28 09:21:41;;;;;;;1.60;0.30;;;;;;;19.92;93.00;99296.27;109769;1277;22232;-77
2023/07/28 09:24:14;;;;;;;4.00;0.50;;;;;;;19.95;93.53;99295.63;109766;1285;22703;-77
2023/07/28 09:26:46;;;;;;;2.90;0.30;;;;;;;20.00;93.32;99298.45;109797;1285;22173;-77
2023/07/28 09:29:18;;;;;;;2.00;0.30;;;;;;;20.08;93.37;99299.63;109793;1281;22209;-76
2023/07/28 09:31:51;;;;;;;1.80;0.30;;;;;;;20.18;93.08;99300.27;109808;1285;22148;-78
2023/07/28 09:34:29;;;;;;;0.60;0.30;;;;;;;20.29;93.48;99300.30;109788;1279;22296;-77
2023/07/28 09:37:01;;;;;;;2.00;0.20;;;;;;;20.44;93.38;99294.35;109784;1283;22225;-77
2023/07/28 09:39:34;;;;;;;0.90;0.30;;;;;;;20.58;93.22;99290.68;109797;1280;22234;-77
2023/07/28 09:42:09;;;;;;;1.00;0.30;;;;;;;20.73;92.80;99289.59;109802;1273;22179;-77
2023/07/28 09:44:40;;;;;;;2.00;0.30;;;;;;;20.85;92.27;99289.39;109775;1285;22182;-77
2023/07/28 09:47:10;;;;;;;1.20;0.30;;;;;;;20.97;92.21;99292.44;109798;1280;22181;-77
2023/07/28 09:49:48;;;;;;;1.50;0.20;;;;;;;21.10;91.78;99287.57;109772;1281;22953;-77
2023/07/28 09:52:24;;;;;;;4.60;0.50;;;;;;;21.19;90.56;99292.48;109781;1277;22170;-77
2023/07/28 09:54:56;;;;;;;1.50;0.50;;;;;;;21.28;90.11;99291.30;109798;1281;22196;-77
2023/07/28 09:57:30;;;;;;;1.60;0.40;;;;;;;21.40;90.57;99282.91;109796;1283;22193;-77
2023/07/28 10:00:03;;;;;;;3.00;0.60;;;;;;;21.58;89.58;99279.18;109791;1282;22324;-77
2023/07/28 10:02:35;;;;;;;1.70;0.40;;;;;;;21.67;88.70;99271.58;109788;1285;22371;-78
2023/07/28 10:05:07;;;;;;;1.60;0.50;;;;;;;21.76;88.27;99275.94;109787;1285;22781;-79
2023/07/28 10:07:39;;;;;;;0.80;0.30;;;;;;;21.84;88.21;99277.13;109820;1284;22193;-77
2023/07/28 10:10:14;;;;;;;1.30;0.40;;;;;;;21.87;87.79;99278.66;109782;1285;22153;-77
2023/07/28 10:12:49;;;;;;;1.70;0.40;;;;;;;21.86;86.59;99277.19;109818;1285;22182;-77
2023/07/28 10:15:21;;;;;;;2.50;0.50;;;;;;;21.86;86.37;99281.02;109822;1285;22199;-78
2023/07/28 10:17:57;;;;;;;2.30;0.40;;;;;;;21.94;87.37;99278.71;109790;1285;22164;-78
2023/07/28 10:20:35;;;;;;;1.40;0.40;;;;;;;22.11;87.61;99276.21;109810;1273;22127;-77
2023/07/28 10:23:13;;;;;;;2.90;0.50;;;;;;;22.23;86.44;99277.81;109780;1285;22146;-78
2023/07/28 10:25:45;;;;;;;6.10;0.60;;;;;;;22.28;85.58;99277.15;109787;1285;22151;-78
2023/07/28 10:28:32;;;;;;;1.30;0.30;;;;;;;22.28;84.84;99273.25;109806;1285;22239;-78
2023/07/28 10:31:06;;;;;;;1.40;0.50;;;;;;;22.29;84.84;99270.33;109795;1285;22901;-78
2023/07/28 10:33:39;;;;;;;4.50;0.40;;;;;;;22.32;84.84;99271.08;109837;1281;22179;-78
2023/07/28 10:36:18;;;;;;;2.50;0.40;;;;;;;22.42;84.02;99274.13;109800;1285;22831;-78
2023/07/28 10:39:00;;;;;;;1.10;0.40;;;;;;;22.52;83.70;99274.55;109841;1284;22022;-78
2023/07/28 10:41:30;;;;;;;2.90;0.60;;;;;;;22.61;83.74;99279.42;109792;1280;22361;-78
2023/07/28 10:44:03;;;;;;;2.20;0.40;;;;;;;22.69;83.42;99280.41;109823;1280;23000;-78
2023/07/28 10:46:38;;;;;;;2.80;0.40;;;;;;;22.76;81.97;99279.66;109804;1285;22141;-78
2023/07/28 10:49:09;;;;;;;2.30;0.40;;;;;;;22.78;81.22;99285.09;109800;1285;22185;-78
2023/07/28 10:51:40;;;;;;;2.90;0.40;;;;;;;22.82;80.81;99276.90;109806;1279;22924;-78
2023/07/28 10:54:15;;;;;;;1.90;0.60;;;;;;;22.86;80.67;99277.30;109808;1285;22206;-78
2023/07/28 10:56:46;;;;;;;3.00;0.40;;;;;;;22.94;80.58;99279.25;109827;1279;22238;-78
2023/07/28 10:59:17;;;;;;;1.70;0.30;;;;;;;23.03;78.74;99285.77;109797;1285;22169;-78
2023/07/28 11:01:48;;;;;;;2.90;0.40;;;;;;;23.08;78.18;99281.62;109795;1285;22289;-78
2023/07/28 11:04:21;;;;;;;1.20;0.30;;;;;;;23.13;77.57;99278.31;109809;1285;22171;-78
2023/07/28 11:06:52;;;;;;;2.00;0.30;;;;;;;23.16;77.20;99274.30;109827;1285;22271;-78
2023/07/28 11:09:25;;;;;;;1.50;0.40;;;;;;;23.17;76.70;99279.54;109824;1277;22327;-79
2023/07/28 11:11:56;;;;;;;1.90;0.40;;;;;;;23.17;75.72;99275.98;109804;1285;22196;-78
2023/07/28 11:14:29;;;;;;;1.00;0.30;;;;;;;23.14;75.59;99271.70;109817;1285;22328;-78
2023/07/28 11:17:00;;;;;;;3.80;0.50;;;;;;;23.13;74.95;99272.48;109824;1285;22146;-78
2023/07/28 11:19:31;;;;;;;1.10;0.40;;;;;;;23.16;75.09;99267.77;105701;1280;5395938;-78
2023/07/28 11:22:02;;;;;;;2.70;0.50;;;;;;;23.26;75.26;99267.40;109812;1270;22898;-78
2023/07/28 11:24:34;;;;;;;2.80;0.40;;;;;;;23.37;74.55;99261.20;109824;1285;22162;-78
2023/07/28 11:27:08;;;;;;;0.70;0.20;;;;;;;23.47;74.35;99261.69;109804;1283;22877;-78
2023/07/28 11:29:48;;;;;;;3.90;0.40;;;;;;;23.58;73.15;99256.48;109797;1280;22891;-78
2023/07/28 11:32:21;;;;;;;2.20;0.30;;;;;;;23.63;72.06;99258.71;109797;1284;22153;-78
2023/07/28 11:34:52;;;;;;;1.80;0.40;;;;;;;23.69;71.53;99257.92;109808;1280;22144;-78
2023/07/28 11:37:24;;;;;;;1.00;0.40;;;;;;;23.80;70.89;99257.30;109802;1280;22309;-78
2023/07/28 11:39:55;;;;;;;0.90;0.30;;;;;;;23.88;70.18;99252.80;109791;1280;22182;-78
2023/07/28 11:42:26;;;;;;;3.10;0.30;;;;;;;23.93;68.68;99254.09;109791;1277;22345;-78
2023/07/28 11:44:58;;;;;;;1.90;0.40;;;;;;;23.94;68.08;99249.43;109794;1285;22172;-78